Time;durP1;ratioP1;P1;durP2;ratioP2;P2;SDS_P1;SDS_P2;PMS_P1;PMS_P2;Temp;Humidity;BMP_temperature;BMP_pressure;BME280_temperature;BME280_humidity;BME280_pressure;Samples;Min_cycle;Max_cycle;Signal;HPM_P1;HPM_P2
2022/02/04 00:05:54;;;;;;;25.27;15.50;;;6.60;99.90;;;;;;5065700;28;20747;-86
2022/02/04 00:08:45;;;;;;;25.73;15.10;;;6.60;99.90;;;;;;5065125;28;21009;-87
2022/02/04 00:24:51;;;;;;;30.07;15.40;;;6.60;99.90;;;;;;5063982;28;20429;-80
2022/02/04 00:27:20;;;;;;;29.33;17.00;;;6.60;99.90;;;;;;5065382;28;20844;-80
2022/02/04 00:29:57;;;;;;;26.97;18.37;;;6.60;99.90;;;;;;5062716;28;20253;-81
2022/02/04 00:32:25;;;;;;;24.77;14.70;;;6.60;99.90;;;;;;5062885;28;20544;-81
2022/02/04 00:34:58;;;;;;;25.97;17.17;;;6.60;99.90;;;;;;5062638;28;20434;-80
2022/02/04 00:37:41;;;;;;;25.13;14.97;;;6.60;99.90;;;;;;5070930;28;20409;-81
2022/02/04 00:40:14;;;;;;;32.30;17.97;;;6.60;99.90;;;;;;5073371;28;20422;-81
2022/02/04 00:42:39;;;;;;;29.57;18.67;;;6.60;99.90;;;;;;5073981;28;20772;-80
2022/02/04 00:45:46;;;;;;;27.87;16.50;;;6.60;99.90;;;;;;5090107;28;20488;-80
2022/02/04 00:48:09;;;;;;;27.00;17.03;;;6.60;99.90;;;;;;5072372;28;20231;-80
2022/02/04 00:50:50;;;;;;;33.97;18.67;;;6.50;99.90;;;;;;5074385;28;20417;-81
2022/02/04 00:53:23;;;;;;;25.73;17.13;;;6.50;99.90;;;;;;5089505;28;20425;-81
2022/02/04 00:56:13;;;;;;;29.40;15.77;;;6.60;99.90;;;;;;5072579;28;20807;-82
2022/02/04 01:26:03;;;;;;;30.63;16.50;;;6.50;99.90;;;;;;5072474;28;20405;-80
2022/02/04 01:28:31;;;;;;;31.63;17.13;;;6.50;99.90;;;;;;5073104;28;20475;-80
2022/02/04 01:30:57;;;;;;;29.67;18.10;;;6.50;99.90;;;;;;5073403;28;20412;-80
2022/02/04 01:33:23;;;;;;;32.30;18.50;;;6.50;99.90;;;;;;5072976;28;20428;-82
2022/02/04 01:35:49;;;;;;;36.83;18.40;;;6.50;99.90;;;;;;5073226;28;20413;-81
2022/02/04 01:38:15;;;;;;;27.57;16.93;;;6.50;99.90;;;;;;5073241;28;20214;-81
2022/02/04 01:40:40;;;;;;;31.47;18.37;;;6.40;99.90;;;;;;5073230;28;20493;-80
2022/02/04 01:43:06;;;;;;;37.77;17.40;;;6.40;99.90;;;;;;5072990;28;20661;-80
2022/02/04 01:45:32;;;;;;;31.90;16.50;;;6.40;99.90;;;;;;5073236;28;20172;-80
2022/02/04 01:47:57;;;;;;;31.70;17.40;;;6.50;99.90;;;;;;5073103;28;20202;-81
2022/02/04 01:50:28;;;;;;;34.87;19.20;;;6.50;99.90;;;;;;5072105;28;20918;-81
2022/02/04 01:52:55;;;;;;;28.23;17.77;;;6.50;99.90;;;;;;5086460;28;20262;-81
2022/02/04 01:55:22;;;;;;;32.47;18.60;;;6.50;99.90;;;;;;5071849;28;20400;-81
2022/02/04 01:57:48;;;;;;;29.13;17.37;;;6.50;99.90;;;;;;5072517;28;20409;-83
2022/02/04 02:00:15;;;;;;;31.33;19.67;;;6.50;99.90;;;;;;5072786;28;20495;-81
2022/02/04 02:02:40;;;;;;;32.27;17.50;;;6.50;99.90;;;;;;5072521;28;20423;-80
2022/02/04 02:05:06;;;;;;;30.43;17.37;;;6.50;99.90;;;;;;5072546;28;20397;-81
2022/02/04 02:07:39;;;;;;;35.00;18.57;;;6.50;99.90;;;;;;5072449;28;20206;-81
2022/02/04 02:10:09;;;;;;;33.97;16.87;;;6.50;99.90;;;;;;5072781;28;20847;-80
2022/02/04 02:13:08;;;;;;;31.10;17.73;;;6.50;99.90;;;;;;5071364;28;20408;-81
2022/02/04 02:15:30;;;;;;;31.13;18.70;;;6.50;99.90;;;;;;5072225;28;20433;-80
2022/02/04 02:34:55;;;;;;;31.27;18.00;;;6.50;99.90;;;;;;5072443;28;20477;-81
2022/02/04 02:38:10;;;;;;;37.50;19.57;;;6.50;99.90;;;;;;5072473;28;20424;-80
2022/02/04 02:40:55;;;;;;;34.80;17.10;;;6.50;99.90;;;;;;5072118;28;20427;-90
2022/02/04 02:46:25;;;;;;;31.93;19.10;;;6.50;99.90;;;;;;5072429;28;20440;-91
2022/02/04 02:51:25;;;;;;;46.30;21.87;;;6.50;99.90;;;;;;5072056;28;20490;-82
2022/02/04 02:53:56;;;;;;;34.63;20.00;;;6.50;99.90;;;;;;5072681;28;20420;-79
2022/02/04 02:59:08;;;;;;;41.77;21.97;;;6.50;99.90;;;;;;5072411;28;20395;-80
2022/02/04 03:01:34;;;;;;;36.27;19.80;;;6.50;99.90;;;;;;5072533;28;20413;-80
2022/02/04 03:04:05;;;;;;;39.90;21.67;;;6.50;99.90;;;;;;5072384;28;20410;-80
2022/02/04 03:06:30;;;;;;;45.50;23.37;;;6.60;99.90;;;;;;5088220;28;20528;-82
2022/02/04 03:08:56;;;;;;;42.17;24.50;;;6.50;99.90;;;;;;5072060;28;20471;-81
2022/02/04 03:11:21;;;;;;;40.20;22.97;;;6.50;99.90;;;;;;5087232;28;20363;-80
2022/02/04 03:13:47;;;;;;;43.30;24.50;;;6.60;99.90;;;;;;5072154;28;20546;-80
2022/02/04 03:16:16;;;;;;;40.60;22.57;;;6.60;99.90;;;;;;5084941;28;20176;-88
2022/02/04 03:18:46;;;;;;;42.43;23.07;;;6.60;99.90;;;;;;5072314;28;20254;-80
2022/02/04 03:21:15;;;;;;;36.03;20.70;;;6.60;99.90;;;;;;5072307;28;20409;-80
2022/02/04 03:23:46;;;;;;;41.97;22.73;;;6.60;99.90;;;;;;5087839;28;20454;-80
2022/02/04 03:26:21;;;;;;;45.60;21.30;;;6.60;99.90;;;;;;5071849;28;20997;-81
2022/02/04 03:28:46;;;;;;;45.60;27.33;;;6.60;99.90;;;;;;5071832;28;20465;-87
2022/02/04 03:31:12;;;;;;;40.03;23.63;;;6.60;99.90;;;;;;5072343;28;20783;-80
2022/02/04 03:33:40;;;;;;;40.13;24.60;;;6.60;99.90;;;;;;5071981;28;20180;-80
2022/02/04 03:36:08;;;;;;;40.80;22.57;;;6.60;99.90;;;;;;5071744;28;20170;-80
2022/02/04 03:38:33;;;;;;;44.70;23.57;;;6.60;99.90;;;;;;5071857;28;20424;-86
2022/02/04 03:40:59;;;;;;;44.23;22.93;;;6.60;99.90;;;;;;5071746;28;20440;-84
2022/02/04 03:43:27;;;;;;;35.23;20.27;;;6.60;99.90;;;;;;5073164;28;20185;-80
2022/02/04 03:45:56;;;;;;;43.37;23.53;;;6.60;99.90;;;;;;5075475;28;20182;-80
2022/02/04 03:48:21;;;;;;;38.37;22.07;;;6.60;99.90;;;;;;5075457;28;20975;-80
2022/02/04 03:50:47;;;;;;;42.63;23.23;;;6.60;99.90;;;;;;5091285;28;20428;-79
2022/02/04 03:53:14;;;;;;;38.27;22.47;;;6.60;99.90;;;;;;5075232;28;20318;-79
2022/02/04 03:55:41;;;;;;;34.97;21.90;;;6.60;99.90;;;;;;5074599;28;20269;-82
2022/02/04 03:58:07;;;;;;;35.80;20.43;;;6.60;99.90;;;;;;5074781;28;20490;-80
2022/02/04 04:00:33;;;;;;;37.70;22.70;;;6.60;99.90;;;;;;5075243;28;20444;-79
2022/02/04 04:02:59;;;;;;;35.93;21.97;;;6.60;99.90;;;;;;5075153;28;20472;-80
2022/02/04 04:05:24;;;;;;;32.90;20.87;;;6.60;99.90;;;;;;5075165;28;20206;-79
2022/02/04 04:07:50;;;;;;;39.20;24.57;;;6.60;99.90;;;;;;5075161;28;20554;-79
2022/02/04 04:10:22;;;;;;;36.60;22.40;;;6.60;99.90;;;;;;5074146;28;20167;-79
2022/02/04 04:12:47;;;;;;;36.53;20.03;;;6.60;99.90;;;;;;5074865;28;20416;-82
2022/02/04 04:15:13;;;;;;;38.43;22.70;;;6.60;99.90;;;;;;5074896;28;20424;-81
2022/02/04 04:17:41;;;;;;;40.20;20.83;;;6.60;99.90;;;;;;5074656;28;20234;-80
2022/02/04 04:20:15;;;;;;;39.57;21.20;;;6.60;99.90;;;;;;5074828;28;20239;-80
2022/02/04 04:22:42;;;;;;;37.13;20.23;;;6.60;99.90;;;;;;5074792;28;20494;-80
2022/02/04 04:25:09;;;;;;;37.70;22.00;;;6.60;99.90;;;;;;5074803;28;20424;-80
2022/02/04 04:27:35;;;;;;;43.83;22.10;;;6.60;99.90;;;;;;5074329;28;20861;-80
2022/02/04 04:30:00;;;;;;;38.80;21.67;;;6.60;99.90;;;;;;5074613;28;20471;-80
2022/02/04 04:32:29;;;;;;;41.83;22.00;;;6.60;99.90;;;;;;5074661;28;20478;-81
2022/02/04 04:34:54;;;;;;;36.47;22.87;;;6.60;99.90;;;;;;5074481;28;20614;-80
2022/02/04 04:37:21;;;;;;;39.93;22.40;;;6.60;99.90;;;;;;5074210;28;20431;-80
2022/02/04 04:42:55;;;;;;;40.73;21.47;;;6.60;99.90;;;;;;5073204;28;20511;-82
2022/02/04 04:45:43;;;;;;;45.13;21.40;;;6.60;99.90;;;;;;5073092;28;20455;-80
2022/02/04 05:29:06;;;;;;;32.93;17.93;;;6.40;99.90;;;;;;5073416;28;20463;-80
2022/02/04 05:31:32;;;;;;;30.23;17.67;;;6.40;99.90;;;;;;5071876;28;20413;-80
2022/02/04 05:33:58;;;;;;;29.70;19.03;;;6.50;99.90;;;;;;5072170;28;20908;-80
2022/02/04 05:36:27;;;;;;;29.40;17.33;;;6.40;99.90;;;;;;5073160;28;20174;-79
2022/02/04 05:38:54;;;;;;;34.70;18.40;;;6.40;99.90;;;;;;5073270;28;20422;-79
2022/02/04 05:41:33;;;;;;;37.77;18.30;;;6.40;99.90;;;;;;5072338;28;20455;-80
2022/02/04 05:44:04;;;;;;;38.03;19.80;;;6.40;99.90;;;;;;5071575;28;20491;-81
2022/02/04 05:46:35;;;;;;;33.57;17.57;;;6.40;99.90;;;;;;5071966;28;20416;-81
2022/02/04 05:49:02;;;;;;;31.23;20.10;;;6.50;99.90;;;;;;5072931;28;20613;-80
2022/02/04 05:54:19;;;;;;;30.23;17.20;;;6.40;99.90;;;;;;5072021;28;20403;-80
2022/02/04 06:07:13;;;;;;;26.53;15.93;;;6.40;99.90;;;;;;5071292;28;20931;-81
2022/02/04 06:10:10;;;;;;;30.60;17.40;;;6.40;99.90;;;;;;5071461;28;20746;-82
2022/02/04 06:13:03;;;;;;;33.93;17.80;;;6.40;99.90;;;;;;5072011;28;20413;-81
2022/02/04 06:23:35;;;;;;;32.43;16.63;;;6.50;99.90;;;;;;5070883;28;20458;-80
2022/02/04 06:26:00;;;;;;;29.67;15.30;;;6.50;99.90;;;;;;5071161;28;20451;-80
2022/02/04 06:28:29;;;;;;;30.70;16.53;;;6.50;99.90;;;;;;5071942;28;20210;-86
2022/02/04 06:30:54;;;;;;;28.60;16.50;;;6.50;99.90;;;;;;5071786;28;20299;-81
2022/02/04 06:33:20;;;;;;;28.53;16.90;;;6.50;99.90;;;;;;5070655;28;20523;-81
2022/02/04 06:35:45;;;;;;;25.63;16.80;;;6.50;99.90;;;;;;5086514;28;20170;-81
2022/02/04 06:38:11;;;;;;;29.70;17.20;;;6.50;99.90;;;;;;5071616;28;20181;-80
2022/02/04 06:40:37;;;;;;;26.83;15.63;;;6.50;99.90;;;;;;5072506;28;20618;-80
2022/02/04 06:43:05;;;;;;;28.23;17.00;;;6.50;99.90;;;;;;5088303;28;20165;-80
2022/02/04 06:45:31;;;;;;;27.43;16.57;;;6.50;99.90;;;;;;5072745;28;20170;-79
2022/02/04 06:47:56;;;;;;;30.80;16.47;;;6.50;99.90;;;;;;5072715;28;20455;-80
2022/02/04 06:50:22;;;;;;;25.20;16.00;;;6.50;99.90;;;;;;5072755;28;20182;-81
2022/02/04 06:52:48;;;;;;;28.60;16.50;;;6.50;99.90;;;;;;5072779;28;20173;-80
2022/02/04 06:55:14;;;;;;;27.07;16.23;;;6.50;99.90;;;;;;5072409;28;20543;-81
2022/02/04 06:57:46;;;;;;;29.13;17.13;;;6.50;99.90;;;;;;5088007;28;20171;-80
2022/02/04 07:00:14;;;;;;;29.20;17.20;;;6.60;99.90;;;;;;5072566;28;20217;-80
2022/02/04 07:02:39;;;;;;;29.13;17.47;;;6.60;99.90;;;;;;5072746;28;20408;-80
2022/02/04 07:05:10;;;;;;;28.73;16.90;;;6.60;99.90;;;;;;5072629;28;20429;-81
2022/02/04 07:07:37;;;;;;;28.73;15.87;;;6.60;99.90;;;;;;5072408;28;20659;-80
2022/02/04 07:10:12;;;;;;;31.63;17.97;;;6.70;99.90;;;;;;5072511;28;20919;-81
2022/02/04 07:12:49;;;;;;;34.97;17.67;;;6.70;99.90;;;;;;5072376;28;20752;-82
2022/02/04 07:20:54;;;;;;;27.13;16.93;;;6.70;99.90;;;;;;5076499;28;20419;-81
2022/02/04 07:23:19;;;;;;;33.63;16.70;;;6.70;99.90;;;;;;5076359;28;20457;-80
2022/02/04 07:25:45;;;;;;;30.30;18.27;;;6.70;99.90;;;;;;5076036;28;20412;-81
2022/02/04 07:28:10;;;;;;;29.90;17.67;;;6.70;99.90;;;;;;5076348;28;20198;-82
2022/02/04 07:30:37;;;;;;;29.97;16.80;;;6.70;99.90;;;;;;5076136;28;20633;-81
2022/02/04 07:33:26;;;;;;;27.97;17.30;;;6.80;99.90;;;;;;5075899;28;20652;-80
2022/02/04 07:41:17;;;;;;;27.77;16.60;;;6.80;99.90;;;;;;5075723;28;20807;-80
2022/02/04 07:43:43;;;;;;;28.10;17.17;;;6.80;99.90;;;;;;5075907;28;20401;-80
2022/02/04 07:46:13;;;;;;;37.77;18.97;;;6.80;99.90;;;;;;5075862;28;20435;-80
2022/02/04 07:48:40;;;;;;;26.73;16.00;;;6.80;99.90;;;;;;5075776;28;20667;-80
2022/02/04 07:51:05;;;;;;;29.60;17.60;;;6.90;99.90;;;;;;5075726;28;20891;-80
2022/02/04 07:53:33;;;;;;;27.67;16.17;;;6.90;99.90;;;;;;5075722;28;20511;-80
2022/02/04 07:55:58;;;;;;;26.93;15.50;;;6.90;99.90;;;;;;5075368;28;20274;-80
2022/02/04 07:58:24;;;;;;;26.23;16.30;;;6.90;99.90;;;;;;5091680;28;20508;-80
2022/02/04 08:00:51;;;;;;;32.40;17.43;;;7.00;99.90;;;;;;5075662;28;20408;-80
2022/02/04 08:03:32;;;;;;;28.77;17.30;;;7.00;99.90;;;;;;5075736;28;20171;-80
2022/02/04 08:06:04;;;;;;;34.00;19.07;;;7.00;99.90;;;;;;5091398;28;20419;-81
2022/02/04 08:08:40;;;;;;;27.17;16.53;;;7.00;99.90;;;;;;5075585;28;20974;-81
2022/02/04 08:14:09;;;;;;;28.97;17.53;;;7.00;99.90;;;;;;5075806;28;20818;-81
2022/02/04 08:19:40;;;;;;;26.67;17.83;;;7.10;99.90;;;;;;5075236;28;20503;-81
2022/02/04 08:22:41;;;;;;;30.97;17.90;;;7.10;99.90;;;;;;5075501;28;20427;-80
2022/02/04 08:34:10;;;;;;;26.43;17.90;;;7.20;99.90;;;;;;5069188;28;20517;-81
2022/02/04 08:47:48;;;;;;;26.53;17.57;;;7.30;99.90;;;;;;5074616;28;20440;-80
2022/02/04 08:50:28;;;;;;;25.00;16.27;;;7.30;99.90;;;;;;5074768;28;20483;-80
2022/02/04 08:58:21;;;;;;;26.97;17.13;;;7.40;99.90;;;;;;5074759;28;20419;-81
2022/02/04 09:00:56;;;;;;;25.17;16.47;;;7.40;99.90;;;;;;5074637;28;20502;-81
2022/02/04 09:03:41;;;;;;;27.43;18.90;;;7.40;99.90;;;;;;5073370;28;20499;-80
2022/02/04 09:06:10;;;;;;;23.83;17.33;;;7.50;99.90;;;;;;5061062;28;20419;-81
2022/02/04 09:08:46;;;;;;;23.93;16.43;;;7.50;99.90;;;;;;5054100;28;20511;-81
2022/02/04 09:11:26;;;;;;;26.50;16.90;;;7.60;99.90;;;;;;5053183;28;20404;-80
2022/02/04 09:19:40;;;;;;;28.03;17.37;;;7.70;99.90;;;;;;5037563;28;20462;-81
2022/02/04 09:22:19;;;;;;;27.70;17.23;;;7.70;99.90;;;;;;5052865;28;20462;-82
2022/02/04 09:24:46;;;;;;;21.80;16.17;;;7.70;99.90;;;;;;5054003;28;20423;-81
2022/02/04 09:27:12;;;;;;;23.33;15.53;;;7.70;99.90;;;;;;5053426;28;20426;-81
2022/02/04 09:29:38;;;;;;;27.97;18.10;;;7.80;99.90;;;;;;5053964;28;20857;-81
2022/02/04 09:32:04;;;;;;;23.93;15.53;;;7.80;99.90;;;;;;5053675;28;20450;-81
2022/02/04 09:34:29;;;;;;;27.77;17.80;;;7.80;99.90;;;;;;5052465;28;20188;-83
2022/02/04 09:36:55;;;;;;;23.30;16.33;;;7.80;99.90;;;;;;5053531;28;20473;-81
2022/02/04 09:39:20;;;;;;;26.47;16.20;;;7.90;99.90;;;;;;5053486;28;20175;-81
2022/02/04 09:41:47;;;;;;;23.97;15.43;;;7.80;99.90;;;;;;5051548;28;20634;-81
2022/02/04 09:44:12;;;;;;;23.77;16.63;;;7.90;99.90;;;;;;5053611;28;20228;-81
2022/02/04 09:46:40;;;;;;;19.77;15.17;;;7.90;99.90;;;;;;5053751;28;20993;-81
2022/02/04 09:49:21;;;;;;;24.57;16.73;;;7.90;99.90;;;;;;5053440;28;20254;-80
2022/02/04 10:04:20;;;;;;;27.10;17.23;;;7.90;99.90;;;;;;5053442;28;20414;-81
2022/02/04 10:09:18;;;;;;;21.20;17.37;;;8.10;99.90;;;;;;5053238;28;20477;-82
2022/02/04 10:25:01;;;;;;;21.87;16.23;;;8.30;99.90;;;;;;5052783;28;20975;-86
2022/02/04 10:27:31;;;;;;;20.73;14.43;;;8.30;99.90;;;;;;5053008;28;20805;-85
2022/02/04 10:30:16;;;;;;;26.50;16.40;;;8.30;99.90;;;;;;5051809;28;20480;-82
2022/02/04 10:32:49;;;;;;;22.40;16.47;;;8.30;99.90;;;;;;5053030;28;20437;-81
2022/02/04 10:35:36;;;;;;;20.90;15.23;;;8.30;99.90;;;;;;5052878;28;20414;-81
2022/02/04 11:04:38;;;;;;;17.07;13.33;;;9.10;99.90;;;;;;5059763;28;20945;-81
2022/02/04 11:21:59;;;;;;;14.93;11.03;;;9.20;99.90;;;;;;5059303;28;20471;-81
2022/02/04 11:35:47;;;;;;;13.20;10.00;;;10.40;99.90;;;;;;5047594;28;20437;-88
2022/02/04 11:52:28;;;;;;;12.80;8.73;;;9.60;99.90;;;;;;5059178;28;20419;-85
2022/02/04 11:54:55;;;;;;;8.17;7.37;;;9.60;99.90;;;;;;5058722;28;20772;-84
2022/02/04 11:57:32;;;;;;;10.10;8.10;;;9.60;99.90;;;;;;5058951;28;20439;-85
2022/02/04 12:00:20;;;;;;;9.17;7.90;;;9.60;99.90;;;;;;5059179;28;20478;-85
2022/02/04 12:02:53;;;;;;;10.70;7.43;;;9.90;99.90;;;;;;5059162;28;20407;-81
2022/02/04 12:05:18;;;;;;;13.70;7.10;;;9.90;99.90;;;;;;5053908;28;20456;-84
2022/02/04 12:08:15;;;;;;;8.00;7.13;;;10.30;99.90;;;;;;5055789;28;20510;-86
2022/02/04 12:10:48;;;;;;;7.90;7.07;;;9.90;99.90;;;;;;5055050;28;20182;-81
2022/02/04 12:13:19;;;;;;;9.23;6.80;;;9.80;99.90;;;;;;5054448;28;20416;-83
2022/02/04 12:15:55;;;;;;;8.83;7.87;;;9.90;99.90;;;;;;5055571;28;20412;-90
2022/02/04 12:18:22;;;;;;;9.37;7.70;;;10.10;99.90;;;;;;5055637;28;20457;-81
2022/02/04 12:20:53;;;;;;;10.70;7.57;;;10.80;99.90;;;;;;5053964;28;20813;-86
2022/02/04 12:23:27;;;;;;;8.50;7.37;;;11.20;99.90;;;;;;5055612;28;20421;-81
2022/02/04 12:26:04;;;;;;;8.43;6.23;;;11.00;99.90;;;;;;5054754;28;20411;-82
2022/02/04 12:29:03;;;;;;;8.63;6.53;;;10.60;99.90;;;;;;5055457;28;20587;-83
2022/02/04 12:31:42;;;;;;;9.13;6.90;;;10.40;99.90;;;;;;5055047;28;20402;-81
2022/02/04 12:34:17;;;;;;;8.97;7.07;;;10.20;99.90;;;;;;5054983;28;20402;-81
2022/02/04 12:36:59;;;;;;;8.77;5.10;;;10.00;99.90;;;;;;5055137;28;20461;-81
2022/02/04 12:39:25;;;;;;;7.10;6.10;;;9.70;99.90;;;;;;5053963;28;20408;-84
2022/02/04 12:41:54;;;;;;;7.10;5.80;;;9.70;99.90;;;;;;5055246;28;20423;-81
2022/02/04 12:44:37;;;;;;;6.93;5.40;;;9.60;99.90;;;;;;5052046;28;20931;-89
2022/02/04 12:47:12;;;;;;;6.70;6.00;;;9.60;99.90;;;;;;5054387;28;20410;-83
2022/02/04 12:49:46;;;;;;;8.07;5.07;;;9.60;99.90;;;;;;5053189;28;20467;-81
2022/02/04 12:52:19;;;;;;;6.07;4.93;;;9.40;99.90;;;;;;5054427;28;20442;-81
2022/02/04 12:54:55;;;;;;;5.37;4.50;;;9.50;99.90;;;;;;5054035;28;20413;-83
2022/02/04 12:57:31;;;;;;;5.67;4.97;;;9.40;99.90;;;;;;5054618;28;20412;-85
2022/02/04 13:00:08;;;;;;;6.37;5.03;;;9.30;99.90;;;;;;5054612;28;20415;-81
2022/02/04 13:03:04;;;;;;;8.73;6.40;;;9.20;99.90;;;;;;5053319;28;20430;-81
2022/02/04 13:11:21;;;;;;;7.20;4.73;;;9.10;99.90;;;;;;5054248;28;20911;-81
2022/02/04 13:13:49;;;;;;;7.33;5.30;;;9.10;99.90;;;;;;5053502;28;20424;-87
2022/02/04 13:16:29;;;;;;;7.20;5.37;;;9.10;99.90;;;;;;5054189;28;20510;-81
2022/02/04 13:19:01;;;;;;;6.70;4.70;;;9.00;99.90;;;;;;5052845;28;21065;-80
2022/02/04 13:21:28;;;;;;;5.03;4.53;;;9.00;99.90;;;;;;5054004;28;20935;-81
2022/02/04 13:23:55;;;;;;;4.90;3.83;;;9.00;99.90;;;;;;5054225;28;20413;-80
2022/02/04 13:26:24;;;;;;;3.73;2.77;;;9.00;99.90;;;;;;5053272;28;20514;-81
2022/02/04 13:28:56;;;;;;;4.67;3.63;;;9.10;99.90;;;;;;5054997;28;20644;-81
2022/02/04 13:31:22;;;;;;;5.73;3.80;;;9.00;99.90;;;;;;5070988;28;20418;-81
2022/02/04 13:33:51;;;;;;;5.17;3.40;;;9.10;99.90;;;;;;5073816;28;20428;-82
2022/02/04 13:36:42;;;;;;;4.70;3.20;;;9.10;99.90;;;;;;5072402;28;20423;-86
2022/02/04 13:39:23;;;;;;;7.37;3.20;;;9.00;99.90;;;;;;5071660;28;20408;-82
2022/02/04 13:42:07;;;;;;;5.50;3.77;;;9.00;99.90;;;;;;5054122;28;20426;-81
2022/02/04 13:44:56;;;;;;;5.87;3.67;;;9.00;99.90;;;;;;5053991;28;20411;-89
2022/02/04 13:47:42;;;;;;;5.33;3.30;;;9.00;99.90;;;;;;5053772;28;20808;-81
2022/02/04 13:50:26;;;;;;;3.73;3.13;;;9.00;99.90;;;;;;5053804;28;20415;-81
2022/02/04 13:53:01;;;;;;;4.90;3.10;;;9.10;99.90;;;;;;5054010;28;20762;-87
2022/02/04 13:58:33;;;;;;;3.30;2.70;;;9.10;99.90;;;;;;5053246;28;20419;-89
2022/02/04 14:01:19;;;;;;;4.20;2.60;;;9.00;99.90;;;;;;5052247;28;20408;-90
2022/02/04 14:03:53;;;;;;;3.00;2.70;;;9.10;99.90;;;;;;5051703;28;20514;-90
2022/02/04 14:06:22;;;;;;;4.00;3.13;;;9.10;99.90;;;;;;5051591;28;20419;-88
2022/02/04 14:09:03;;;;;;;6.30;3.00;;;9.00;99.90;;;;;;5052728;28;20498;-88
2022/02/04 14:11:32;;;;;;;2.67;2.23;;;9.10;99.90;;;;;;5051569;28;20427;-87
2022/02/04 14:13:59;;;;;;;2.60;1.80;;;9.10;99.90;;;;;;5051041;28;20455;-88
2022/02/04 14:16:25;;;;;;;2.17;1.87;;;9.10;99.90;;;;;;5052225;28;20427;-89
2022/02/04 14:18:51;;;;;;;2.80;2.50;;;9.10;99.90;;;;;;5050839;28;20850;-87
2022/02/04 14:21:17;;;;;;;4.00;1.97;;;9.20;99.90;;;;;;5052171;28;20427;-88
2022/02/04 14:23:47;;;;;;;3.30;2.30;;;9.10;99.90;;;;;;5051140;28;20576;-88
2022/02/04 14:26:23;;;;;;;2.73;2.30;;;9.10;99.90;;;;;;5051926;28;20423;-87
2022/02/04 14:28:54;;;;;;;2.53;1.53;;;9.10;99.90;;;;;;5052108;28;20624;-89
2022/02/04 14:31:29;;;;;;;5.87;2.13;;;9.10;99.90;;;;;;5051466;28;20642;-88
2022/02/04 15:00:48;;;;;;;3.10;1.30;;;8.00;99.90;;;;;;5053490;28;20442;-92
2022/02/04 15:03:19;;;;;;;5.20;3.67;;;8.90;99.90;;;;;;5057073;28;20452;-91
2022/02/04 15:05:49;;;;;;;3.40;2.07;;;8.00;99.90;;;;;;5065153;28;20426;-88
2022/02/04 15:08:18;;;;;;;2.00;1.80;;;8.90;99.90;;;;;;5085176;28;20481;-87
2022/02/04 15:10:46;;;;;;;3.67;2.77;;;8.80;99.90;;;;;;5078069;28;20938;-89
2022/02/04 15:13:15;;;;;;;2.73;2.00;;;8.80;99.90;;;;;;5089769;28;20433;-89
2022/02/04 15:15:42;;;;;;;5.23;2.67;;;8.80;99.90;;;;;;5084281;28;20432;-88
2022/02/04 15:18:08;;;;;;;2.47;2.27;;;8.80;99.90;;;;;;5076317;28;20484;-91
2022/02/04 15:20:37;;;;;;;4.10;1.90;;;8.80;99.90;;;;;;5072054;28;20417;-87
2022/02/04 15:23:03;;;;;;;2.80;2.40;;;8.70;99.90;;;;;;5070255;28;20432;-87
2022/02/04 15:25:29;;;;;;;4.33;3.40;;;8.60;99.90;;;;;;5071082;28;20406;-88
2022/02/04 15:30:26;;;;;;;2.43;2.20;;;8.60;99.90;;;;;;5071054;28;20686;-86
2022/02/04 15:32:52;;;;;;;2.10;1.90;;;8.60;99.90;;;;;;5063454;28;20254;-85
2022/02/04 15:35:17;;;;;;;2.37;2.03;;;8.60;99.90;;;;;;5069943;28;20834;-87
2022/02/04 15:37:43;;;;;;;1.77;1.57;;;8.60;99.90;;;;;;5071400;28;20184;-90
2022/02/04 15:40:09;;;;;;;3.20;2.00;;;8.60;99.90;;;;;;5075251;28;20250;-88
2022/02/04 15:42:37;;;;;;;2.17;1.80;;;8.50;99.90;;;;;;5075505;28;20179;-89
2022/02/04 15:45:41;;;;;;;2.20;1.20;;;8.50;99.90;;;;;;5076591;28;20422;-89
2022/02/04 15:53:35;;;;;;;2.00;1.70;;;8.40;99.90;;;;;;5075385;28;20916;-89
2022/02/04 15:59:04;;;;;;;2.97;2.20;;;8.40;99.90;;;;;;5074371;28;20417;-84
2022/02/04 16:01:56;;;;;;;6.00;2.10;;;8.30;99.90;;;;;;5076529;28;20425;-95
2022/02/04 16:04:32;;;;;;;3.17;2.87;;;8.30;99.90;;;;;;5055183;28;20519;-89
2022/02/04 16:06:57;;;;;;;3.20;1.93;;;8.20;99.90;;;;;;5056824;28;20504;-90
2022/02/04 16:09:24;;;;;;;4.10;2.30;;;8.30;99.90;;;;;;5055130;28;21044;-88
2022/02/04 16:12:16;;;;;;;3.67;2.20;;;8.20;99.90;;;;;;5055611;28;20172;-90
2022/02/04 16:14:56;;;;;;;3.70;3.00;;;8.20;99.90;;;;;;5055838;28;20422;-91
2022/02/04 16:17:38;;;;;;;3.13;2.63;;;8.20;99.90;;;;;;5053008;28;20788;-90
2022/02/04 16:20:17;;;;;;;3.77;3.07;;;8.20;99.90;;;;;;5053740;28;20459;-89
2022/02/04 16:25:56;;;;;;;4.70;3.43;;;8.10;99.90;;;;;;5055371;28;20418;-91
2022/02/04 16:31:19;;;;;;;4.70;3.00;;;8.00;99.90;;;;;;5031422;28;20423;-89
2022/02/04 16:33:46;;;;;;;4.50;3.20;;;8.00;99.90;;;;;;5053675;28;20421;-92
2022/02/04 16:36:17;;;;;;;3.37;3.00;;;8.00;99.90;;;;;;5053653;28;20621;-89
2022/02/04 16:38:51;;;;;;;2.33;2.10;;;8.00;99.90;;;;;;5054827;28;20433;-93
2022/02/04 16:41:20;;;;;;;2.63;2.40;;;7.90;99.90;;;;;;5059381;28;20913;-91
2022/02/04 16:43:45;;;;;;;4.00;1.60;;;8.00;99.90;;;;;;5055764;28;20950;-91
2022/02/04 16:46:11;;;;;;;2.60;2.30;;;8.00;99.90;;;;;;5055019;28;20418;-90
2022/02/04 16:48:37;;;;;;;2.60;2.23;;;8.00;99.90;;;;;;5054347;28;20213;-89
2022/02/04 16:51:07;;;;;;;3.10;2.10;;;8.00;99.90;;;;;;5055797;28;20191;-92
2022/02/04 16:53:34;;;;;;;6.23;1.77;;;8.10;99.90;;;;;;5057785;28;20178;-88
2022/02/04 16:55:59;;;;;;;2.40;1.90;;;8.00;99.90;;;;;;5057736;28;20468;-92
2022/02/04 16:58:25;;;;;;;1.67;1.17;;;8.00;99.90;;;;;;5055977;28;20414;-90
2022/02/04 17:00:51;;;;;;;2.30;1.37;;;8.00;99.90;;;;;;5055061;28;20203;-90
2022/02/04 17:03:16;;;;;;;1.67;0.80;;;8.00;99.90;;;;;;5054955;28;20264;-90
2022/02/04 17:08:20;;;;;;;2.60;1.47;;;8.00;99.90;;;;;;5055621;28;20214;-91
2022/02/04 17:10:50;;;;;;;2.27;2.07;;;8.00;99.90;;;;;;5055135;28;20418;-92
2022/02/04 17:13:17;;;;;;;2.03;1.83;;;8.00;99.90;;;;;;5055040;28;20433;-91
2022/02/04 17:15:43;;;;;;;2.00;1.10;;;7.90;99.90;;;;;;5099848;22;20491;-90
2022/02/04 17:18:10;;;;;;;3.13;1.27;;;8.00;99.90;;;;;;5115775;28;20506;-91
2022/02/04 17:20:35;;;;;;;3.63;2.90;;;8.00;99.90;;;;;;5116026;28;20191;-91
2022/02/04 17:23:02;;;;;;;2.10;1.90;;;7.90;99.90;;;;;;5115635;28;20419;-91
2022/02/04 17:25:29;;;;;;;4.10;2.50;;;7.90;99.90;;;;;;5096772;28;20658;-88
2022/02/04 17:27:56;;;;;;;3.03;2.30;;;7.90;99.90;;;;;;5096791;28;20504;-91
2022/02/04 17:30:24;;;;;;;4.03;2.50;;;7.80;99.90;;;;;;5097272;28;20422;-92
2022/02/04 17:32:50;;;;;;;4.30;3.03;;;7.80;99.90;;;;;;5097626;28;20412;-94
2022/02/04 17:35:18;;;;;;;4.63;3.20;;;7.70;99.90;;;;;;5097073;28;20422;-91
2022/02/04 17:37:45;;;;;;;5.13;3.20;;;7.70;99.90;;;;;;5095795;28;20778;-89
2022/02/04 17:40:13;;;;;;;5.17;3.60;;;7.60;99.90;;;;;;5095370;28;20462;-86
2022/02/04 17:42:41;;;;;;;1.00;0.50;;;7.40;99.90;;;;;;5113832;28;20514;-88
2022/02/04 17:45:10;;;;;;;1.13;0.60;;;5.70;99.90;;;;;;5095230;28;20466;-88
2022/02/04 17:47:36;;;;;;;2.07;0.60;;;5.40;99.90;;;;;;5113429;28;20733;-88
2022/02/04 17:50:10;;;;;;;0.60;0.27;;;5.30;99.90;;;;;;5095579;28;21000;-86
2022/02/04 17:55:11;;;;;;;0.83;0.43;;;5.10;99.90;;;;;;5113157;28;20413;-88
2022/02/04 17:57:49;;;;;;;0.60;0.20;;;5.00;99.90;;;;;;5113782;28;20399;-91
2022/02/04 18:03:34;;;;;;;0.30;0.20;;;4.80;99.90;;;;;;5030080;28;20463;-86
2022/02/04 18:06:12;;;;;;;1.27;0.23;;;4.70;99.90;;;;;;5031384;28;20512;-88
2022/02/04 18:08:38;;;;;;;0.40;0.30;;;4.50;99.90;;;;;;5082529;28;20530;-84
2022/02/04 18:11:04;;;;;;;0.80;0.20;;;4.50;99.90;;;;;;5113909;28;20410;-85
2022/02/04 18:13:31;;;;;;;0.80;0.30;;;4.50;99.90;;;;;;5095387;28;20175;-87
2022/02/04 18:16:03;;;;;;;0.90;0.43;;;4.40;99.90;;;;;;5093782;28;20453;-85
2022/02/04 18:18:29;;;;;;;0.40;0.30;;;4.30;99.90;;;;;;5112067;28;20427;-83
2022/02/04 18:20:55;;;;;;;1.43;0.40;;;4.20;99.90;;;;;;5111849;28;20420;-83
2022/02/04 18:23:21;;;;;;;2.10;0.70;;;4.20;99.90;;;;;;5112414;28;20175;-89
2022/02/04 18:25:48;;;;;;;0.93;0.30;;;4.10;99.90;;;;;;5113627;28;20414;-86
2022/02/04 18:28:14;;;;;;;0.53;0.20;;;4.00;99.90;;;;;;5095542;28;20473;-82
2022/02/04 18:30:40;;;;;;;2.10;0.30;;;3.90;99.90;;;;;;5095299;28;20475;-89
2022/02/04 18:33:05;;;;;;;0.50;0.40;;;3.80;99.90;;;;;;5113732;28;20182;-89
2022/02/04 18:35:31;;;;;;;1.20;0.63;;;3.90;99.90;;;;;;5095536;28;20409;-86
2022/02/04 18:38:08;;;;;;;1.27;0.60;;;3.80;99.90;;;;;;5095195;28;20175;-83
2022/02/04 18:40:58;;;;;;;1.53;0.40;;;3.80;99.90;;;;;;5093969;28;20178;-86
2022/02/04 18:46:04;;;;;;;0.40;0.20;;;3.70;99.90;;;;;;5113369;28;20455;-85
2022/02/04 18:48:40;;;;;;;0.70;0.30;;;3.70;99.90;;;;;;5094289;28;20465;-84